sensor_id;sensor_type;location;lat;lon;timestamp;pressure;altitude;pressure_sealevel;temperature;humidity
818;BME280;391;51.052;6.954;2022-11-23T00:00:26;99136.72;;;9.08;83.65
818;BME280;391;51.052;6.954;2022-11-23T00:02:30;99138.47;;;9.09;83.73
818;BME280;391;51.052;6.954;2022-11-23T00:04:33;99135.84;;;9.08;83.71
818;BME280;391;51.052;6.954;2022-11-23T00:06:37;99143.72;;;9.15;83.70
818;BME280;391;51.052;6.954;2022-11-23T00:08:41;99138.50;;;9.12;83.22
818;BME280;391;51.052;6.954;2022-11-23T00:10:45;99148.03;;;9.12;83.22
818;BME280;391;51.052;6.954;2022-11-23T00:12:48;99135.91;;;9.14;83.26
818;BME280;391;51.052;6.954;2022-11-23T00:14:52;99138.47;;;9.11;83.59
818;BME280;391;51.052;6.954;2022-11-23T00:16:55;99138.50;;;9.12;83.63
818;BME280;391;51.052;6.954;2022-11-23T00:18:59;99140.25;;;9.15;84.05
818;BME280;391;51.052;6.954;2022-11-23T00:21:07;99148.06;;;9.18;83.97
818;BME280;391;51.052;6.954;2022-11-23T00:23:10;99135.00;;;9.09;83.64
818;BME280;391;51.052;6.954;2022-11-23T00:25:15;99145.44;;;9.12;84.02
818;BME280;391;51.052;6.954;2022-11-23T00:27:18;99153.25;;;9.15;84.01
818;BME280;391;51.052;6.954;2022-11-23T00:29:22;99146.31;;;9.14;83.93
818;BME280;391;51.052;6.954;2022-11-23T00:31:25;99149.84;;;9.19;83.72
818;BME280;391;51.052;6.954;2022-11-23T00:33:29;99147.22;;;9.19;83.75
818;BME280;391;51.052;6.954;2022-11-23T00:35:34;99150.69;;;9.18;84.14
818;BME280;391;51.052;6.954;2022-11-23T00:37:38;99145.44;;;9.16;84.47
818;BME280;391;51.052;6.954;2022-11-23T00:39:41;99148.91;;;9.14;84.24
818;BME280;391;51.052;6.954;2022-11-23T00:41:46;99142.81;;;9.13;84.40
818;BME280;391;51.052;6.954;2022-11-23T00:43:49;99144.53;;;9.10;84.04
818;BME280;391;51.052;6.954;2022-11-23T00:46:06;99143.72;;;9.12;84.70
818;BME280;391;51.052;6.954;2022-11-23T00:48:12;99153.19;;;9.07;84.41
818;BME280;391;51.052;6.954;2022-11-23T00:50:15;99144.50;;;9.07;84.41
818;BME280;391;51.052;6.954;2022-11-23T00:52:19;99142.84;;;9.15;84.48
818;BME280;391;51.052;6.954;2022-11-23T00:54:22;99148.06;;;9.18;84.01
818;BME280;391;51.052;6.954;2022-11-23T00:56:26;99149.81;;;9.16;84.46
818;BME280;391;51.052;6.954;2022-11-23T00:58:31;99127.16;;;9.04;84.28
818;BME280;391;51.052;6.954;2022-11-23T01:00:34;99155.91;;;9.21;83.93
818;BME280;391;51.052;6.954;2022-11-23T01:02:38;99161.09;;;9.22;83.77
818;BME280;391;51.052;6.954;2022-11-23T01:04:41;99168.06;;;9.23;83.86
818;BME280;391;51.052;6.954;2022-11-23T01:06:45;99163.69;;;9.18;84.29
818;BME280;391;51.052;6.954;2022-11-23T01:08:51;99129.72;;;8.99;84.51
818;BME280;391;51.052;6.954;2022-11-23T01:11:00;99171.56;;;9.25;84.08
818;BME280;391;51.052;6.954;2022-11-23T01:13:04;99167.22;;;9.27;84.24
818;BME280;391;51.052;6.954;2022-11-23T01:15:09;99168.09;;;9.29;84.29
818;BME280;391;51.052;6.954;2022-11-23T01:17:12;99175.88;;;9.26;83.67
818;BME280;391;51.052;6.954;2022-11-23T01:19:17;99170.63;;;9.19;83.93
818;BME280;391;51.052;6.954;2022-11-23T01:21:24;99169.75;;;9.18;84.32
818;BME280;391;51.052;6.954;2022-11-23T01:23:28;99178.47;;;9.26;84.21
818;BME280;391;51.052;6.954;2022-11-23T01:25:34;99172.44;;;9.27;83.88
818;BME280;391;51.052;6.954;2022-11-23T01:27:37;99181.09;;;9.28;83.94
818;BME280;391;51.052;6.954;2022-11-23T01:29:40;99184.56;;;9.27;84.11
818;BME280;391;51.052;6.954;2022-11-23T01:31:45;99189.78;;;9.28;84.00
818;BME280;391;51.052;6.954;2022-11-23T01:33:52;99187.22;;;9.31;83.77
818;BME280;391;51.052;6.954;2022-11-23T01:35:55;99189.88;;;9.37;83.93
818;BME280;391;51.052;6.954;2022-11-23T01:38:00;99195.03;;;9.34;84.12
818;BME280;391;51.052;6.954;2022-11-23T01:40:04;99190.63;;;9.27;83.71
818;BME280;391;51.052;6.954;2022-11-23T01:42:07;99199.28;;;9.25;83.96
818;BME280;391;51.052;6.954;2022-11-23T01:44:26;99194.91;;;9.21;83.75
818;BME280;391;51.052;6.954;2022-11-23T01:46:30;99194.06;;;9.23;84.33
818;BME280;391;51.052;6.954;2022-11-23T01:48:38;99199.22;;;9.20;83.79
818;BME280;391;51.052;6.954;2022-11-23T01:50:44;99198.38;;;9.21;83.77
818;BME280;391;51.052;6.954;2022-11-23T01:52:49;99200.09;;;9.22;83.81
818;BME280;391;51.052;6.954;2022-11-23T01:54:54;99193.19;;;9.21;83.90
818;BME280;391;51.052;6.954;2022-11-23T01:57:00;99205.34;;;9.24;84.02
818;BME280;391;51.052;6.954;2022-11-23T01:59:08;99193.97;;;9.14;83.98
818;BME280;391;51.052;6.954;2022-11-23T02:01:13;99204.47;;;9.22;84.02
818;BME280;391;51.052;6.954;2022-11-23T02:03:17;99212.25;;;9.23;83.83
818;BME280;391;51.052;6.954;2022-11-23T02:05:26;99208.78;;;9.21;84.24
818;BME280;391;51.052;6.954;2022-11-23T02:07:32;99208.81;;;9.26;83.55
818;BME280;391;51.052;6.954;2022-11-23T02:09:36;99186.97;;;9.07;83.77
818;BME280;391;51.052;6.954;2022-11-23T02:11:39;99213.16;;;9.27;83.98
818;BME280;391;51.052;6.954;2022-11-23T02:13:47;99207.09;;;9.29;83.78
818;BME280;391;51.052;6.954;2022-11-23T02:15:52;99205.47;;;9.37;83.72
818;BME280;391;51.052;6.954;2022-11-23T02:17:58;99207.19;;;9.38;83.31
818;BME280;391;51.052;6.954;2022-11-23T02:20:07;99199.38;;;9.38;83.50
818;BME280;391;51.052;6.954;2022-11-23T02:22:18;99215.00;;;9.38;83.34
818;BME280;391;51.052;6.954;2022-11-23T02:24:25;99213.28;;;9.37;83.12
818;BME280;391;51.052;6.954;2022-11-23T02:26:33;99214.94;;;9.32;83.14
818;BME280;391;51.052;6.954;2022-11-23T02:28:42;99212.31;;;9.29;83.47
818;BME280;391;51.052;6.954;2022-11-23T02:30:48;99218.41;;;9.33;83.08
818;BME280;391;51.052;6.954;2022-11-23T02:32:57;99205.28;;;9.19;83.75
818;BME280;391;51.052;6.954;2022-11-23T02:35:00;99212.31;;;9.29;83.66
818;BME280;391;51.052;6.954;2022-11-23T02:37:04;99223.56;;;9.25;84.05
818;BME280;391;51.052;6.954;2022-11-23T02:39:09;99214.91;;;9.29;83.77
818;BME280;391;51.052;6.954;2022-11-23T02:41:14;99221.81;;;9.26;83.92
818;BME280;391;51.052;6.954;2022-11-23T02:43:21;99220.09;;;9.26;84.12
818;BME280;391;51.052;6.954;2022-11-23T02:45:33;99216.56;;;9.23;84.63
818;BME280;391;51.052;6.954;2022-11-23T02:47:38;99221.81;;;9.26;83.81
818;BME280;391;51.052;6.954;2022-11-23T02:49:45;99218.31;;;9.21;84.20
818;BME280;391;51.052;6.954;2022-11-23T02:51:49;99218.31;;;9.22;83.93
818;BME280;391;51.052;6.954;2022-11-23T02:53:52;99220.91;;;9.22;83.98
818;BME280;391;51.052;6.954;2022-11-23T02:55:56;99220.13;;;9.28;84.09
818;BME280;391;51.052;6.954;2022-11-23T02:57:59;99218.41;;;9.31;83.85
818;BME280;391;51.052;6.954;2022-11-23T03:00:05;99218.38;;;9.25;83.85
818;BME280;391;51.052;6.954;2022-11-23T03:02:11;99220.19;;;9.37;83.83
818;BME280;391;51.052;6.954;2022-11-23T03:04:15;99217.53;;;9.32;83.45
818;BME280;391;51.052;6.954;2022-11-23T03:06:19;99216.63;;;9.27;84.17
818;BME280;391;51.052;6.954;2022-11-23T03:08:23;99219.22;;;9.26;84.48
818;BME280;391;51.052;6.954;2022-11-23T03:10:26;99214.91;;;9.28;84.61
818;BME280;391;51.052;6.954;2022-11-23T03:12:30;99223.50;;;9.22;84.43
818;BME280;391;51.052;6.954;2022-11-23T03:14:35;99216.63;;;9.29;84.69
818;BME280;391;51.052;6.954;2022-11-23T03:16:41;99225.31;;;9.28;85.04
818;BME280;391;51.052;6.954;2022-11-23T03:18:45;99222.72;;;9.29;84.46
818;BME280;391;51.052;6.954;2022-11-23T03:20:48;99218.38;;;9.28;84.72
818;BME280;391;51.052;6.954;2022-11-23T03:22:52;99223.63;;;9.31;84.39
818;BME280;391;51.052;6.954;2022-11-23T03:24:58;99227.91;;;9.29;84.51
818;BME280;391;51.052;6.954;2022-11-23T03:27:02;99228.91;;;9.42;84.56
818;BME280;391;51.052;6.954;2022-11-23T03:29:07;99228.06;;;9.46;84.15
818;BME280;391;51.052;6.954;2022-11-23T03:31:13;99225.38;;;9.38;84.09
818;BME280;391;51.052;6.954;2022-11-23T03:33:18;99226.28;;;9.37;83.87
818;BME280;391;51.052;6.954;2022-11-23T03:35:22;99229.72;;;9.36;83.92
818;BME280;391;51.052;6.954;2022-11-23T03:37:48;99223.59;;;9.28;84.25
818;BME280;391;51.052;6.954;2022-11-23T03:39:52;99234.06;;;9.37;83.65
818;BME280;391;51.052;6.954;2022-11-23T03:42:33;99228.88;;;9.39;83.98
818;BME280;391;51.052;6.954;2022-11-23T03:44:37;99234.88;;;9.32;84.20
818;BME280;391;51.052;6.954;2022-11-23T03:46:40;99225.28;;;9.26;84.65
818;BME280;391;51.052;6.954;2022-11-23T03:48:45;99235.69;;;9.26;84.87
818;BME280;391;51.052;6.954;2022-11-23T03:50:48;99228.78;;;9.28;85.08
818;BME280;391;51.052;6.954;2022-11-23T03:52:52;99223.56;;;9.27;85.06
818;BME280;391;51.052;6.954;2022-11-23T03:54:55;99222.63;;;9.20;84.91
818;BME280;391;51.052;6.954;2022-11-23T03:56:59;99223.44;;;9.16;85.05
818;BME280;391;51.052;6.954;2022-11-23T03:59:02;99220.00;;;9.17;85.09
818;BME280;391;51.052;6.954;2022-11-23T04:01:05;99216.59;;;9.21;84.29
818;BME280;391;51.052;6.954;2022-11-23T04:03:09;99218.31;;;9.21;84.03
818;BME280;391;51.052;6.954;2022-11-23T04:05:46;99230.47;;;9.23;84.43
818;BME280;391;51.052;6.954;2022-11-23T04:08:19;99226.97;;;9.23;84.18
818;BME280;391;51.052;6.954;2022-11-23T04:10:23;99228.81;;;9.31;84.11
818;BME280;391;51.052;6.954;2022-11-23T04:12:49;99227.84;;;9.23;83.69
818;BME280;391;51.052;6.954;2022-11-23T04:14:54;99231.31;;;9.21;83.84
818;BME280;391;51.052;6.954;2022-11-23T04:17:04;99230.50;;;9.25;83.29
818;BME280;391;51.052;6.954;2022-11-23T04:19:08;99231.34;;;9.24;83.22
818;BME280;391;51.052;6.954;2022-11-23T04:21:13;99233.09;;;9.25;83.22
818;BME280;391;51.052;6.954;2022-11-23T04:23:18;99227.03;;;9.27;83.17
818;BME280;391;51.052;6.954;2022-11-23T04:25:23;99216.66;;;9.30;83.18
818;BME280;391;51.052;6.954;2022-11-23T04:27:27;99227.91;;;9.29;82.87
818;BME280;391;51.052;6.954;2022-11-23T04:29:30;99220.09;;;9.29;83.20
818;BME280;391;51.052;6.954;2022-11-23T04:31:34;99234.84;;;9.29;82.89
818;BME280;391;51.052;6.954;2022-11-23T04:33:46;99237.56;;;9.41;82.65
818;BME280;391;51.052;6.954;2022-11-23T04:35:51;99222.78;;;9.38;82.66
818;BME280;391;51.052;6.954;2022-11-23T04:37:56;99231.47;;;9.37;82.74
818;BME280;391;51.052;6.954;2022-11-23T04:40:02;99224.53;;;9.35;82.78
818;BME280;391;51.052;6.954;2022-11-23T04:42:14;99231.44;;;9.34;82.25
818;BME280;391;51.052;6.954;2022-11-23T04:44:23;99228.91;;;9.43;82.58
818;BME280;391;51.052;6.954;2022-11-23T04:46:33;99238.44;;;9.43;82.30
818;BME280;391;51.052;6.954;2022-11-23T04:48:43;99230.56;;;9.34;82.30
818;BME280;391;51.052;6.954;2022-11-23T04:50:50;99232.25;;;9.27;82.63
818;BME280;391;51.052;6.954;2022-11-23T04:53:04;99236.56;;;9.27;82.18
818;BME280;391;51.052;6.954;2022-11-23T04:55:14;99230.50;;;9.29;82.32
818;BME280;391;51.052;6.954;2022-11-23T04:57:28;99234.03;;;9.34;82.36
818;BME280;391;51.052;6.954;2022-11-23T04:59:33;99240.19;;;9.41;82.15
818;BME280;391;51.052;6.954;2022-11-23T05:01:37;99243.53;;;9.32;82.16
818;BME280;391;51.052;6.954;2022-11-23T05:04:09;99243.47;;;9.23;82.57
818;BME280;391;51.052;6.954;2022-11-23T05:06:19;99251.28;;;9.26;82.39
818;BME280;391;51.052;6.954;2022-11-23T05:08:24;99245.09;;;9.14;83.39
818;BME280;391;51.052;6.954;2022-11-23T05:10:37;99242.59;;;9.23;83.64
818;BME280;391;51.052;6.954;2022-11-23T05:12:41;99243.47;;;9.22;83.62
818;BME280;391;51.052;6.954;2022-11-23T05:14:45;99243.50;;;9.25;83.95
818;BME280;391;51.052;6.954;2022-11-23T05:16:54;99245.19;;;9.23;83.74
818;BME280;391;51.052;6.954;2022-11-23T05:18:58;99244.28;;;9.19;84.08
818;BME280;391;51.052;6.954;2022-11-23T05:21:02;99243.34;;;9.13;84.36
818;BME280;391;51.052;6.954;2022-11-23T05:23:05;99245.09;;;9.14;84.06
818;BME280;391;51.052;6.954;2022-11-23T05:25:13;99245.91;;;9.08;83.94
818;BME280;391;51.052;6.954;2022-11-23T05:27:18;99241.56;;;9.07;84.25
818;BME280;391;51.052;6.954;2022-11-23T05:29:21;99248.50;;;9.10;84.57
818;BME280;391;51.052;6.954;2022-11-23T05:31:25;99250.19;;;9.04;84.62
818;BME280;391;51.052;6.954;2022-11-23T05:33:28;99253.72;;;9.10;84.59
818;BME280;391;51.052;6.954;2022-11-23T05:35:31;99233.63;;;8.95;84.53
818;BME280;391;51.052;6.954;2022-11-23T05:37:37;99257.13;;;9.04;84.45
818;BME280;391;51.052;6.954;2022-11-23T05:39:44;99249.28;;;8.99;84.96
818;BME280;391;51.052;6.954;2022-11-23T05:41:50;99263.09;;;8.97;85.45
818;BME280;391;51.052;6.954;2022-11-23T05:44:05;99267.50;;;8.99;86.24
818;BME280;391;51.052;6.954;2022-11-23T05:46:08;99263.09;;;8.95;85.95
818;BME280;391;51.052;6.954;2022-11-23T05:48:13;99266.56;;;8.96;86.49
818;BME280;391;51.052;6.954;2022-11-23T05:50:27;99255.31;;;8.95;86.90
818;BME280;391;51.052;6.954;2022-11-23T05:52:49;99260.41;;;8.88;87.59
818;BME280;391;51.052;6.954;2022-11-23T05:54:53;99258.69;;;8.87;87.57
818;BME280;391;51.052;6.954;2022-11-23T05:56:59;99256.00;;;8.84;87.76
818;BME280;391;51.052;6.954;2022-11-23T05:59:14;99250.78;;;8.81;87.81
818;BME280;391;51.052;6.954;2022-11-23T06:01:22;99250.81;;;8.82;88.60
818;BME280;391;51.052;6.954;2022-11-23T06:03:28;99260.44;;;8.91;88.19
818;BME280;391;51.052;6.954;2022-11-23T06:05:31;99262.16;;;8.89;88.05
818;BME280;391;51.052;6.954;2022-11-23T06:07:35;99255.16;;;8.83;87.63
818;BME280;391;51.052;6.954;2022-11-23T06:09:42;99256.94;;;8.87;87.26
818;BME280;391;51.052;6.954;2022-11-23T06:11:46;99258.59;;;8.84;87.63
818;BME280;391;51.052;6.954;2022-11-23T06:13:54;99257.78;;;8.85;87.35
818;BME280;391;51.052;6.954;2022-11-23T06:15:58;99264.69;;;8.84;87.22
818;BME280;391;51.052;6.954;2022-11-23T06:18:08;99258.59;;;8.84;86.69
818;BME280;391;51.052;6.954;2022-11-23T06:20:21;99250.88;;;8.87;86.35
818;BME280;391;51.052;6.954;2022-11-23T06:22:31;99227.28;;;8.72;86.37
818;BME280;391;51.052;6.954;2022-11-23T06:24:37;99260.41;;;8.86;86.32
818;BME280;391;51.052;6.954;2022-11-23T06:27:06;99258.69;;;8.87;86.03
818;BME280;391;51.052;6.954;2022-11-23T06:29:14;99251.75;;;8.90;85.71
818;BME280;391;51.052;6.954;2022-11-23T06:31:17;99255.31;;;8.95;85.88
818;BME280;391;51.052;6.954;2022-11-23T06:33:24;99254.47;;;8.98;85.71
818;BME280;391;51.052;6.954;2022-11-23T06:35:28;99251.84;;;8.96;85.51
818;BME280;391;51.052;6.954;2022-11-23T06:37:31;99258.72;;;8.91;85.09
818;BME280;391;51.052;6.954;2022-11-23T06:39:35;99255.16;;;8.85;85.00
818;BME280;391;51.052;6.954;2022-11-23T06:41:40;99254.28;;;8.83;84.75
818;BME280;391;51.052;6.954;2022-11-23T06:43:45;99241.19;;;8.74;84.60
818;BME280;391;51.052;6.954;2022-11-23T06:45:57;99257.78;;;8.85;84.53
818;BME280;391;51.052;6.954;2022-11-23T06:48:04;99261.31;;;8.90;84.19
818;BME280;391;51.052;6.954;2022-11-23T06:50:12;99260.41;;;8.88;83.85
818;BME280;391;51.052;6.954;2022-11-23T06:52:18;99254.31;;;8.87;84.06
818;BME280;391;51.052;6.954;2022-11-23T06:54:23;99259.50;;;8.83;84.27
818;BME280;391;51.052;6.954;2022-11-23T06:56:30;99257.78;;;8.85;83.57
818;BME280;391;51.052;6.954;2022-11-23T06:58:33;99270.78;;;8.88;83.74
818;BME280;391;51.052;6.954;2022-11-23T07:00:42;99269.94;;;8.90;82.99
818;BME280;391;51.052;6.954;2022-11-23T07:02:51;99264.78;;;8.93;82.87
818;BME280;391;51.052;6.954;2022-11-23T07:04:57;99264.81;;;8.95;82.38
818;BME280;391;51.052;6.954;2022-11-23T07:07:03;99274.44;;;9.02;82.04
818;BME280;391;51.052;6.954;2022-11-23T07:09:15;99266.59;;;8.99;81.70
818;BME280;391;51.052;6.954;2022-11-23T07:11:27;99280.44;;;8.96;80.95
818;BME280;391;51.052;6.954;2022-11-23T07:13:30;99273.47;;;8.94;80.53
818;BME280;391;51.052;6.954;2022-11-23T07:15:34;99276.06;;;8.94;80.44
818;BME280;391;51.052;6.954;2022-11-23T07:17:38;99284.72;;;8.94;80.31
818;BME280;391;51.052;6.954;2022-11-23T07:19:45;99277.78;;;8.93;79.99
818;BME280;391;51.052;6.954;2022-11-23T07:21:49;99275.19;;;8.93;79.92
818;BME280;391;51.052;6.954;2022-11-23T07:23:52;99279.56;;;8.96;79.99
818;BME280;391;51.052;6.954;2022-11-23T07:25:56;99283.84;;;8.92;79.32
818;BME280;391;51.052;6.954;2022-11-23T07:28:01;99292.56;;;8.97;79.39
818;BME280;391;51.052;6.954;2022-11-23T07:30:07;99284.81;;;9.00;78.95
818;BME280;391;51.052;6.954;2022-11-23T07:32:10;99274.28;;;8.88;78.79
818;BME280;391;51.052;6.954;2022-11-23T07:34:16;99295.22;;;9.02;78.76
818;BME280;391;51.052;6.954;2022-11-23T07:36:21;99297.88;;;9.05;78.61
818;BME280;391;51.052;6.954;2022-11-23T07:38:24;99301.31;;;9.02;78.60
818;BME280;391;51.052;6.954;2022-11-23T07:40:28;99306.50;;;9.04;78.97
818;BME280;391;51.052;6.954;2022-11-23T07:42:32;99310.06;;;9.11;78.82
818;BME280;391;51.052;6.954;2022-11-23T07:44:44;99313.50;;;9.08;79.20
818;BME280;391;51.052;6.954;2022-11-23T07:46:47;99323.84;;;9.07;78.76
818;BME280;391;51.052;6.954;2022-11-23T07:48:52;99323.91;;;9.10;78.63
818;BME280;391;51.052;6.954;2022-11-23T07:51:00;99321.22;;;9.03;78.58
818;BME280;391;51.052;6.954;2022-11-23T07:53:05;99326.44;;;9.03;79.02
818;BME280;391;51.052;6.954;2022-11-23T07:55:09;99322.06;;;9.01;79.19
818;BME280;391;51.052;6.954;2022-11-23T07:57:12;99320.28;;;8.95;79.46
818;BME280;391;51.052;6.954;2022-11-23T07:59:15;99325.44;;;8.94;79.84
818;BME280;391;51.052;6.954;2022-11-23T08:01:19;99321.97;;;8.93;79.74
818;BME280;391;51.052;6.954;2022-11-23T08:03:22;99334.16;;;8.96;79.92
818;BME280;391;51.052;6.954;2022-11-23T08:05:30;99328.06;;;8.95;80.21
818;BME280;391;51.052;6.954;2022-11-23T08:07:34;99330.69;;;8.97;79.90
818;BME280;391;51.052;6.954;2022-11-23T08:09:39;99326.28;;;8.91;79.86
818;BME280;391;51.052;6.954;2022-11-23T08:11:42;99332.31;;;8.89;80.46
818;BME280;391;51.052;6.954;2022-11-23T08:13:45;99339.31;;;8.94;81.08
818;BME280;391;51.052;6.954;2022-11-23T08:15:49;99319.38;;;8.92;80.85
818;BME280;391;51.052;6.954;2022-11-23T08:17:57;99329.75;;;8.92;81.24
818;BME280;391;51.052;6.954;2022-11-23T08:20:02;99340.13;;;8.89;81.81
818;BME280;391;51.052;6.954;2022-11-23T08:22:05;99335.75;;;8.88;81.81
818;BME280;391;51.052;6.954;2022-11-23T08:24:09;99330.53;;;8.85;81.70
818;BME280;391;51.052;6.954;2022-11-23T08:26:14;99334.03;;;8.88;81.54
818;BME280;391;51.052;6.954;2022-11-23T08:28:17;99322.81;;;8.89;82.14
818;BME280;391;51.052;6.954;2022-11-23T08:30:20;99336.69;;;8.91;81.88
818;BME280;391;51.052;6.954;2022-11-23T08:32:24;99333.28;;;8.95;81.65
818;BME280;391;51.052;6.954;2022-11-23T08:34:27;99338.50;;;8.98;81.34
818;BME280;391;51.052;6.954;2022-11-23T08:36:31;99335.06;;;8.99;80.94
818;BME280;391;51.052;6.954;2022-11-23T08:38:34;99335.88;;;8.97;81.30
818;BME280;391;51.052;6.954;2022-11-23T08:40:38;99342.75;;;8.92;80.96
818;BME280;391;51.052;6.954;2022-11-23T08:42:43;99337.63;;;8.98;81.21
818;BME280;391;51.052;6.954;2022-11-23T08:44:46;99335.91;;;9.00;80.83
818;BME280;391;51.052;6.954;2022-11-23T08:46:49;99346.38;;;9.04;81.01
818;BME280;391;51.052;6.954;2022-11-23T08:48:53;99343.78;;;9.04;80.86
818;BME280;391;51.052;6.954;2022-11-23T08:50:58;99362.84;;;9.05;80.64
818;BME280;391;51.052;6.954;2022-11-23T08:53:01;99353.41;;;9.12;80.62
818;BME280;391;51.052;6.954;2022-11-23T08:55:05;99360.41;;;9.16;80.26
818;BME280;391;51.052;6.954;2022-11-23T08:57:08;99350.00;;;9.17;79.71
818;BME280;391;51.052;6.954;2022-11-23T08:59:13;99343.94;;;9.18;79.54
818;BME280;391;51.052;6.954;2022-11-23T09:01:18;99352.66;;;9.23;79.37
818;BME280;391;51.052;6.954;2022-11-23T09:03:21;99352.72;;;9.28;79.62
818;BME280;391;51.052;6.954;2022-11-23T09:05:25;99338.84;;;9.29;79.37
818;BME280;391;51.052;6.954;2022-11-23T09:07:29;99350.13;;;9.28;79.03
818;BME280;391;51.052;6.954;2022-11-23T09:09:33;99345.88;;;9.36;78.94
818;BME280;391;51.052;6.954;2022-11-23T09:11:36;99347.63;;;9.38;78.95
818;BME280;391;51.052;6.954;2022-11-23T09:13:39;99352.88;;;9.41;78.37
818;BME280;391;51.052;6.954;2022-11-23T09:15:44;99355.56;;;9.49;78.13
818;BME280;391;51.052;6.954;2022-11-23T09:17:48;99362.59;;;9.61;77.66
818;BME280;391;51.052;6.954;2022-11-23T09:19:51;99354.00;;;9.63;77.07
818;BME280;391;51.052;6.954;2022-11-23T09:21:54;99366.97;;;9.60;76.50
818;BME280;391;51.052;6.954;2022-11-23T09:23:58;99355.69;;;9.61;76.41
818;BME280;391;51.052;6.954;2022-11-23T09:26:03;99359.91;;;9.50;76.49
818;BME280;391;51.052;6.954;2022-11-23T09:28:07;99362.44;;;9.45;76.45
818;BME280;391;51.052;6.954;2022-11-23T09:30:14;99363.38;;;9.49;76.22
818;BME280;391;51.052;6.954;2022-11-23T09:32:19;99365.91;;;9.43;76.40
818;BME280;391;51.052;6.954;2022-11-23T09:34:23;99354.59;;;9.38;76.58
818;BME280;391;51.052;6.954;2022-11-23T09:36:26;99362.34;;;9.35;75.86
818;BME280;391;51.052;6.954;2022-11-23T09:38:30;99358.84;;;9.33;75.73
818;BME280;391;51.052;6.954;2022-11-23T09:41:00;99369.19;;;9.27;76.67
818;BME280;391;51.052;6.954;2022-11-23T09:43:27;99372.63;;;9.24;76.81
818;BME280;391;51.052;6.954;2022-11-23T09:45:42;99367.44;;;9.24;76.53
818;BME280;391;51.052;6.954;2022-11-23T09:47:59;99364.84;;;9.29;76.47
818;BME280;391;51.052;6.954;2022-11-23T09:50:14;99373.56;;;9.31;75.66
818;BME280;391;51.052;6.954;2022-11-23T09:52:21;99364.91;;;9.32;76.22
818;BME280;391;51.052;6.954;2022-11-23T09:54:28;99374.69;;;9.52;75.74
818;BME280;391;51.052;6.954;2022-11-23T09:56:35;99367.09;;;9.72;74.92
818;BME280;391;51.052;6.954;2022-11-23T09:58:39;99369.63;;;9.68;73.85
818;BME280;391;51.052;6.954;2022-11-23T10:00:46;99375.59;;;9.56;73.53
818;BME280;391;51.052;6.954;2022-11-23T10:02:50;99376.38;;;9.47;72.95
818;BME280;391;51.052;6.954;2022-11-23T10:04:57;99367.63;;;9.42;73.41
818;BME280;391;51.052;6.954;2022-11-23T10:07:10;99372.81;;;9.42;73.06
818;BME280;391;51.052;6.954;2022-11-23T10:09:28;99371.91;;;9.37;73.16
818;BME280;391;51.052;6.954;2022-11-23T10:11:43;99373.75;;;9.46;72.88
818;BME280;391;51.052;6.954;2022-11-23T10:13:56;99366.78;;;9.43;72.99
818;BME280;391;51.052;6.954;2022-11-23T10:16:25;99353.69;;;9.36;71.98
818;BME280;391;51.052;6.954;2022-11-23T10:18:37;99358.91;;;9.37;72.52
818;BME280;391;51.052;6.954;2022-11-23T10:21:08;99353.66;;;9.31;72.00
818;BME280;391;51.052;6.954;2022-11-23T10:23:29;99371.84;;;9.33;71.76
818;BME280;391;51.052;6.954;2022-11-23T10:25:39;99362.41;;;9.41;72.17
818;BME280;391;51.052;6.954;2022-11-23T10:27:48;99360.59;;;9.35;71.64
818;BME280;391;51.052;6.954;2022-11-23T10:29:53;99355.41;;;9.35;71.25
818;BME280;391;51.052;6.954;2022-11-23T10:31:58;99350.16;;;9.32;71.37
818;BME280;391;51.052;6.954;2022-11-23T10:34:07;99355.34;;;9.28;71.50
818;BME280;391;51.052;6.954;2022-11-23T10:36:14;99360.53;;;9.29;71.47
818;BME280;391;51.052;6.954;2022-11-23T10:38:19;99345.88;;;9.34;71.87
818;BME280;391;51.052;6.954;2022-11-23T10:40:25;99345.09;;;9.43;71.97
818;BME280;391;51.052;6.954;2022-11-23T10:42:35;99343.34;;;9.42;71.27
818;BME280;391;51.052;6.954;2022-11-23T10:44:40;99341.63;;;9.41;71.37
818;BME280;391;51.052;6.954;2022-11-23T10:46:45;99331.28;;;9.48;71.43
818;BME280;391;51.052;6.954;2022-11-23T10:48:49;99332.22;;;9.58;70.89
818;BME280;391;51.052;6.954;2022-11-23T10:51:14;99320.94;;;9.56;71.33
818;BME280;391;51.052;6.954;2022-11-23T10:53:21;99325.25;;;9.52;70.44
818;BME280;391;51.052;6.954;2022-11-23T10:55:29;99314.91;;;9.57;69.80
818;BME280;391;51.052;6.954;2022-11-23T10:57:40;99316.69;;;9.63;69.35
818;BME280;391;51.052;6.954;2022-11-23T10:59:56;99315.34;;;10.10;67.19
818;BME280;391;51.052;6.954;2022-11-23T11:04:26;99307.22;;;10.97;64.96
818;BME280;391;51.052;6.954;2022-11-23T11:06:34;99293.38;;;11.18;63.93
818;BME280;391;51.052;6.954;2022-11-23T11:08:48;99289.00;;;11.06;63.04
818;BME280;391;51.052;6.954;2022-11-23T11:10:57;99275.06;;;11.04;63.59
818;BME280;391;51.052;6.954;2022-11-23T11:13:00;99272.53;;;11.36;64.25
818;BME280;391;51.052;6.954;2022-11-23T11:15:15;99256.94;;;11.57;63.18
818;BME280;391;51.052;6.954;2022-11-23T11:17:24;99274.34;;;11.67;61.82
818;BME280;391;51.052;6.954;2022-11-23T11:19:29;99274.38;;;11.72;61.25
818;BME280;391;51.052;6.954;2022-11-23T11:21:40;99272.53;;;11.29;62.16
818;BME280;391;51.052;6.954;2022-11-23T11:23:50;99282.81;;;10.77;63.04
818;BME280;391;51.052;6.954;2022-11-23T11:26:17;99261.88;;;10.67;64.12
818;BME280;391;51.052;6.954;2022-11-23T11:28:24;99273.16;;;10.62;64.06
818;BME280;391;51.052;6.954;2022-11-23T11:30:39;99268.91;;;10.78;64.45
818;BME280;391;51.052;6.954;2022-11-23T11:32:51;99263.63;;;10.69;64.81
818;BME280;391;51.052;6.954;2022-11-23T11:35:01;99250.47;;;10.43;64.71
818;BME280;391;51.052;6.954;2022-11-23T11:37:12;99272.19;;;10.44;65.21
818;BME280;391;51.052;6.954;2022-11-23T11:39:22;99265.13;;;10.25;66.04
818;BME280;391;51.052;6.954;2022-11-23T11:41:28;99268.56;;;10.15;66.37
818;BME280;391;51.052;6.954;2022-11-23T11:43:33;99269.44;;;10.21;67.05
818;BME280;391;51.052;6.954;2022-11-23T11:45:43;99257.22;;;10.11;66.90
818;BME280;391;51.052;6.954;2022-11-23T11:48:09;99272.03;;;10.14;66.57
818;BME280;391;51.052;6.954;2022-11-23T11:50:20;99271.94;;;10.09;66.69
818;BME280;391;51.052;6.954;2022-11-23T11:52:36;99269.31;;;10.06;66.79
818;BME280;391;51.052;6.954;2022-11-23T11:54:45;99266.72;;;10.06;67.29
818;BME280;391;51.052;6.954;2022-11-23T11:56:54;99269.28;;;10.00;67.53
818;BME280;391;51.052;6.954;2022-11-23T11:59:04;99263.22;;;10.02;68.03
818;BME280;391;51.052;6.954;2022-11-23T12:01:27;99264.13;;;10.09;67.38